Time;durP1;ratioP1;P1;durP2;ratioP2;P2;SDS_P1;SDS_P2;PMS_P1;PMS_P2;Temp;Humidity;BMP_temperature;BMP_pressure;BME280_temperature;BME280_humidity;BME280_pressure;Samples;Min_cycle;Max_cycle;Signal;HPM_P1;HPM_P2
2021/07/05 00:00:43;;;;;;;14.25;10.40;;;;;;;20.37;85.10;98716.13;129972;1093;114103;-55
2021/07/05 00:03:13;;;;;;;14.63;10.18;;;;;;;20.33;84.99;98719.91;129876;1092;23111;-55
2021/07/05 00:05:41;;;;;;;16.93;9.85;;;;;;;20.30;85.02;98728.88;129983;1093;114732;-55
2021/07/05 00:08:11;;;;;;;12.28;9.80;;;;;;;20.27;85.14;98721.26;130086;1093;24309;-55
2021/07/05 00:10:42;;;;;;;13.75;9.85;;;;;;;20.23;85.28;98726.66;130074;1093;22633;-55
2021/07/05 00:13:12;;;;;;;13.50;10.55;;;;;;;20.23;85.49;98731.38;129990;1093;114201;-55
2021/07/05 00:15:41;;;;;;;11.53;9.10;;;;;;;20.22;85.48;98730.56;130096;1093;22549;-56
2021/07/05 00:18:10;;;;;;;12.10;9.40;;;;;;;20.23;85.39;98731.38;130023;1093;113942;-55
2021/07/05 00:20:44;;;;;;;12.30;9.33;;;;;;;20.23;85.56;98732.19;130113;1093;22639;-55
2021/07/05 00:23:22;;;;;;;11.45;9.45;;;;;;;20.26;85.49;98723.21;130005;1093;114064;-55
2021/07/05 00:25:50;;;;;;;10.68;8.43;;;;;;;20.27;85.12;98730.36;130119;1091;23797;-55
2021/07/05 00:28:19;;;;;;;10.30;8.95;;;;;;;20.28;85.05;98717.34;130106;1093;23177;-55
2021/07/05 00:30:48;;;;;;;12.15;8.18;;;;;;;20.27;84.93;98721.26;129999;1093;114069;-55
2021/07/05 00:33:17;;;;;;;13.75;8.93;;;;;;;20.26;84.69;98716.88;130085;1092;22583;-55
2021/07/05 00:35:47;;;;;;;12.80;8.37;;;;;;;20.24;84.80;98708.91;130053;1093;114602;-55
2021/07/05 00:38:15;;;;;;;9.03;8.13;;;;;;;20.23;84.43;98712.02;130070;1091;23480;-55
2021/07/05 00:40:45;;;;;;;13.83;9.03;;;;;;;20.21;84.60;98717.88;130093;1093;22533;-55
2021/07/05 00:43:14;;;;;;;10.15;7.98;;;;;;;20.20;84.35;98716.27;130013;1093;114182;-55
2021/07/05 00:45:43;;;;;;;12.15;8.23;;;;;;;20.20;84.44;98715.48;130115;1092;22759;-56
2021/07/05 00:48:11;;;;;;;10.53;9.05;;;;;;;20.18;84.36;98701.99;129964;1092;114218;-55
2021/07/05 00:50:41;;;;;;;10.13;7.85;;;;;;;20.19;84.19;98702.80;130124;1091;22557;-55
2021/07/05 00:53:10;;;;;;;14.18;8.05;;;;;;;20.18;83.92;98701.19;130075;1092;22545;-56
2021/07/05 00:55:38;;;;;;;13.10;8.03;;;;;;;20.18;83.82;98692.89;129981;1092;114073;-56
2021/07/05 00:58:07;;;;;;;13.83;8.30;;;;;;;20.17;83.75;98696.80;130110;1093;22584;-56
2021/07/05 01:00:37;;;;;;;14.70;7.60;;;;;;;20.16;83.91;98700.71;130000;1093;113985;-55
2021/07/05 01:03:06;;;;;;;13.83;7.40;;;;;;;20.15;83.69;98701.86;130059;1093;22556;-55
2021/07/05 01:05:35;;;;;;;11.00;7.98;;;;;;;20.13;83.61;98697.47;129728;1093;114573;-55
2021/07/05 01:08:04;;;;;;;11.38;7.55;;;;;;;20.11;83.69;98704.49;130059;1093;22655;-55
2021/07/05 01:10:35;;;;;;;12.85;7.20;;;;;;;20.10;83.52;98702.88;130111;1091;22675;-55
2021/07/05 01:13:04;;;;;;;11.05;7.10;;;;;;;20.08;83.90;98703.21;129947;1093;114302;-55
2021/07/05 01:15:33;;;;;;;12.55;7.90;;;;;;;20.08;83.74;98700.45;129352;1093;22912;-54
2021/07/05 01:18:04;;;;;;;11.40;7.68;;;;;;;20.07;83.66;98696.06;130009;1093;114440;-55
2021/07/05 01:20:37;;;;;;;8.75;7.80;;;;;;;20.08;83.86;98697.68;130084;1092;22616;-56
2021/07/05 01:23:08;;;;;;;8.80;7.48;;;;;;;20.08;83.59;98692.15;130149;1092;22647;-55
2021/07/05 01:25:39;;;;;;;9.80;7.85;;;;;;;20.05;83.75;98692.82;129974;1093;115574;-56
2021/07/05 01:28:08;;;;;;;8.45;7.30;;;;;;;20.08;83.89;98692.15;130127;1093;22681;-55
2021/07/05 01:30:37;;;;;;;13.08;7.90;;;;;;;20.05;83.75;98695.59;129983;1093;113826;-55
2021/07/05 01:33:07;;;;;;;9.30;7.60;;;;;;;20.01;83.86;98697.44;130105;1093;22537;-55
2021/07/05 01:35:36;;;;;;;7.98;7.18;;;;;;;19.98;83.82;98698.11;129937;1093;114111;-55
2021/07/05 01:38:09;;;;;;;9.98;7.13;;;;;;;19.97;83.66;98702.03;130140;1093;22560;-55
2021/07/05 01:40:38;;;;;;;8.63;7.25;;;;;;;19.96;83.75;98697.64;130051;1092;22589;-55
2021/07/05 01:43:08;;;;;;;11.45;7.08;;;;;;;19.96;83.73;98699.59;129989;1092;113698;-55
2021/07/05 01:45:37;;;;;;;8.90;7.43;;;;;;;19.97;83.83;98703.98;129243;1092;26265;-54
2021/07/05 01:48:06;;;;;;;11.50;7.08;;;;;;;19.97;83.95;98692.92;125320;1093;114029;-54
2021/07/05 01:50:35;;;;;;;10.95;7.05;;;;;;;19.96;83.99;98703.17;125166;1093;22973;-55
2021/07/05 01:53:04;;;;;;;9.88;8.00;;;;;;;19.95;83.74;98712.61;125379;1093;22783;-55
2021/07/05 01:55:33;;;;;;;10.70;8.40;;;;;;;19.93;84.12;98705.80;125304;1093;114079;-55
2021/07/05 01:58:04;;;;;;;10.88;8.75;;;;;;;19.90;83.75;98704.55;125334;1092;22791;-55
2021/07/05 02:00:34;;;;;;;10.73;8.03;;;;;;;19.90;83.92;98720.33;125242;1093;114361;-55
2021/07/05 02:03:03;;;;;;;8.50;7.70;;;;;;;19.86;84.17;98720.19;130129;1093;22550;-57
2021/07/05 02:05:32;;;;;;;9.30;8.30;;;;;;;19.84;84.02;98728.00;129947;1093;114114;-57
2021/07/05 02:08:02;;;;;;;12.78;8.45;;;;;;;19.82;84.25;98733.06;130121;1093;23176;-57
2021/07/05 02:10:32;;;;;;;11.10;8.15;;;;;;;19.81;84.19;98730.63;130082;1093;22559;-57
2021/07/05 02:13:12;;;;;;;9.38;8.00;;;;;;;19.81;84.34;98730.63;130018;1092;113918;-57
2021/07/05 02:15:41;;;;;;;16.95;8.75;;;;;;;19.78;84.46;98734.88;129102;1093;22921;-56
2021/07/05 02:18:11;;;;;;;10.70;8.70;;;;;;;19.75;84.17;98725.33;125411;1093;114249;-57
2021/07/05 02:20:40;;;;;;;10.13;8.83;;;;;;;19.75;84.29;98724.52;130030;1093;23757;-56
2021/07/05 02:23:10;;;;;;;12.85;8.55;;;;;;;19.73;84.50;98729.57;130135;1089;22616;-55
2021/07/05 02:25:47;;;;;;;12.88;9.18;;;;;;;19.71;84.73;98735.44;129984;1089;113740;-56
2021/07/05 02:28:18;;;;;;;13.58;9.40;;;;;;;19.69;84.65;98740.48;130163;1090;22544;-56
2021/07/05 02:30:49;;;;;;;11.15;9.05;;;;;;;19.66;84.81;98741.15;130023;1090;114076;-55
2021/07/05 02:33:20;;;;;;;9.65;8.65;;;;;;;19.67;84.91;98736.43;130102;1089;22634;-55
2021/07/05 02:35:49;;;;;;;10.15;8.38;;;;;;;19.67;85.13;98741.95;130036;1090;113953;-55
2021/07/05 02:38:19;;;;;;;12.75;9.35;;;;;;;19.69;85.14;98731.38;130063;1088;22608;-55
2021/07/05 02:40:50;;;;;;;13.95;8.65;;;;;;;19.70;85.26;98736.58;130086;1090;22655;-55
2021/07/05 02:43:21;;;;;;;12.30;9.78;;;;;;;19.73;85.16;98735.91;129982;1090;114225;-55
2021/07/05 02:45:53;;;;;;;12.50;8.60;;;;;;;19.73;84.85;98735.91;130110;1090;22751;-57
2021/07/05 02:48:23;;;;;;;12.78;9.08;;;;;;;19.75;85.04;98741.10;129952;1090;113988;-55
2021/07/05 02:50:55;;;;;;;8.58;7.63;;;;;;;19.75;84.91;98739.15;130121;1090;22513;-56
2021/07/05 02:53:25;;;;;;;8.57;7.67;;;;;;;19.78;84.92;98735.69;129965;1090;114834;-55
2021/07/05 02:55:53;;;;;;;11.08;8.78;;;;;;;19.81;84.92;98734.20;130104;1090;22608;-55
2021/07/05 02:58:22;;;;;;;11.98;8.80;;;;;;;19.83;84.87;98731.92;130077;1090;22715;-55
2021/07/05 03:00:53;;;;;;;11.25;8.85;;;;;;;19.86;85.04;98736.77;129988;1090;114022;-55
2021/07/05 03:03:22;;;;;;;16.65;8.95;;;;;;;19.88;85.05;98731.72;130063;1090;22603;-55
2021/07/05 03:05:51;;;;;;;16.60;9.63;;;;;;;19.91;85.07;98741.30;130007;1090;114504;-55
2021/07/05 03:08:20;;;;;;;9.75;8.75;;;;;;;19.94;84.81;98743.36;130089;1090;22560;-55
2021/07/05 03:10:49;;;;;;;11.80;8.95;;;;;;;19.97;84.78;98742.69;130108;1090;22688;-55
2021/07/05 03:13:18;;;;;;;10.70;8.30;;;;;;;19.99;84.81;98743.16;129929;1090;114366;-56
2021/07/05 03:15:48;;;;;;;11.20;8.45;;;;;;;20.01;84.95;98749.98;130076;1090;22641;-55
2021/07/05 03:18:17;;;;;;;10.73;8.78;;;;;;;20.04;84.64;98741.02;129959;1089;113950;-55
2021/07/05 03:20:47;;;;;;;9.45;7.83;;;;;;;20.07;84.68;98745.84;130100;1090;23364;-55
2021/07/05 03:23:16;;;;;;;11.23;10.03;;;;;;;20.09;84.60;98751.03;130034;1089;23168;-55
2021/07/05 03:25:45;;;;;;;10.45;8.80;;;;;;;20.10;84.79;98750.70;129978;1090;113995;-55
2021/07/05 03:28:16;;;;;;;12.13;9.23;;;;;;;20.15;84.51;98748.88;130045;1090;22553;-55
2021/07/05 03:30:46;;;;;;;9.55;8.68;;;;;;;20.18;84.46;98748.20;130000;1089;113942;-56
2021/07/05 03:33:15;;;;;;;11.05;9.28;;;;;;;20.20;84.45;98743.15;130105;1090;23497;-55
2021/07/05 03:35:44;;;;;;;12.98;9.20;;;;;;;20.22;84.49;98743.59;129971;1090;113897;-56
2021/07/05 03:38:16;;;;;;;18.05;9.55;;;;;;;20.25;84.45;98738.19;130103;1090;24877;-55
2021/07/05 03:40:46;;;;;;;11.53;8.78;;;;;;;20.29;84.15;98732.80;130058;1090;23172;-55
2021/07/05 03:43:15;;;;;;;11.28;8.50;;;;;;;20.32;84.08;98732.92;129994;1090;114373;-55
2021/07/05 03:45:43;;;;;;;12.20;8.98;;;;;;;20.35;83.99;98734.98;130050;1088;22562;-58
2021/07/05 03:48:13;;;;;;;14.23;10.28;;;;;;;20.39;83.98;98726.84;129987;1090;113948;-57
2021/07/05 03:50:42;;;;;;;11.20;9.03;;;;;;;20.41;83.60;98728.13;130051;1089;23154;-57
2021/07/05 03:53:11;;;;;;;11.43;9.40;;;;;;;20.43;83.54;98733.33;130150;1089;23876;-57
2021/07/05 03:55:40;;;;;;;11.10;8.65;;;;;;;20.46;83.55;98735.41;129982;1090;114161;-57
2021/07/05 03:58:09;;;;;;;12.93;10.08;;;;;;;20.49;83.56;98728.39;130104;1090;23159;-57
2021/07/05 04:00:38;;;;;;;9.33;8.43;;;;;;;20.52;83.52;98728.48;129958;1090;113947;-57
2021/07/05 04:03:07;;;;;;;12.10;9.35;;;;;;;20.56;83.37;98731.39;130129;1089;22530;-57
2021/07/05 04:05:36;;;;;;;10.70;8.60;;;;;;;20.59;83.24;98725.98;129947;1089;114074;-57
2021/07/05 04:08:05;;;;;;;10.45;9.30;;;;;;;20.62;83.32;98719.77;130124;1090;22529;-57
2021/07/05 04:10:35;;;;;;;9.40;8.38;;;;;;;20.64;83.12;98722.97;130073;1090;23821;-57
2021/07/05 04:13:06;;;;;;;11.10;9.25;;;;;;;20.67;82.96;98725.06;130007;1090;114196;-57
2021/07/05 04:15:38;;;;;;;11.40;9.45;;;;;;;20.68;82.90;98723.91;130077;1090;22583;-57
2021/07/05 04:18:08;;;;;;;10.90;9.45;;;;;;;20.70;82.71;98721.61;129984;1093;114322;-57
2021/07/05 04:20:37;;;;;;;14.05;9.65;;;;;;;20.74;82.44;98725.31;130012;1090;22519;-57
2021/07/05 04:23:06;;;;;;;12.40;10.20;;;;;;;20.77;82.40;98724.63;130082;1090;22590;-57
2021/07/05 04:25:35;;;;;;;12.80;9.35;;;;;;;20.80;82.16;98717.57;129947;1090;114239;-55
2021/07/05 04:28:04;;;;;;;10.95;9.55;;;;;;;20.84;82.19;98724.05;130110;1090;23211;-55
2021/07/05 04:30:33;;;;;;;14.93;9.85;;;;;;;20.87;82.03;98726.13;129969;1089;113953;-55
2021/07/05 04:33:03;;;;;;;12.55;10.30;;;;;;;20.91;82.21;98727.06;130072;1089;22595;-55
2021/07/05 04:35:33;;;;;;;11.00;9.85;;;;;;;20.95;81.91;98729.92;129967;1090;114257;-56
2021/07/05 04:38:02;;;;;;;12.95;10.60;;;;;;;20.98;82.03;98723.70;130050;1090;22578;-56
2021/07/05 04:40:34;;;;;;;12.60;10.38;;;;;;;21.01;81.82;98734.09;130093;1090;22576;-56
2021/07/05 04:43:03;;;;;;;11.03;9.87;;;;;;;21.04;81.88;98727.87;129940;1090;114639;-56
2021/07/05 04:45:33;;;;;;;13.98;10.25;;;;;;;21.09;81.72;98728.42;130075;1093;22560;-55
2021/07/05 04:48:04;;;;;;;12.65;10.53;;;;;;;21.13;81.42;98734.09;129957;1092;114572;-56
2021/07/05 04:50:32;;;;;;;14.50;10.63;;;;;;;21.18;81.28;98736.64;130083;1093;22635;-55
2021/07/05 04:53:01;;;;;;;12.35;9.95;;;;;;;21.21;81.08;98724.86;130076;1090;23413;-56
2021/07/05 04:55:31;;;;;;;10.98;9.88;;;;;;;21.26;81.16;98735.73;129952;1090;113982;-55
2021/07/05 04:58:01;;;;;;;16.38;11.10;;;;;;;21.32;80.79;98728.00;130060;1092;22643;-56
2021/07/05 05:00:31;;;;;;;12.68;10.03;;;;;;;21.38;80.96;98732.13;129964;1090;114130;-56
2021/07/05 05:03:01;;;;;;;12.55;11.33;;;;;;;21.43;80.76;98724.39;130028;1090;23565;-56
2021/07/05 05:05:31;;;;;;;19.00;11.50;;;;;;;21.50;80.43;98730.14;129338;1093;114387;-54
2021/07/05 05:08:00;;;;;;;13.90;12.00;;;;;;;21.56;80.15;98729.91;130060;1090;24025;-57
2021/07/05 05:10:30;;;;;;;14.60;11.98;;;;;;;21.61;79.85;98733.26;130100;1090;22562;-56
2021/07/05 05:12:59;;;;;;;14.10;11.28;;;;;;;21.68;79.98;98733.45;129906;1090;114598;-57
2021/07/05 05:15:29;;;;;;;15.98;11.88;;;;;;;21.79;79.84;98722.67;130089;1092;22570;-57
2021/07/05 05:18:14;;;;;;;15.03;11.93;;;;;;;21.91;79.47;98730.17;129952;1093;115701;-56
2021/07/05 05:20:43;;;;;;;12.95;11.65;;;;;;;21.99;79.15;98720.88;130062;1092;22704;-57
2021/07/05 05:23:12;;;;;;;12.08;10.98;;;;;;;22.10;78.60;98727.56;130046;1093;22592;-57
2021/07/05 05:25:41;;;;;;;12.70;10.58;;;;;;;22.17;78.47;98731.36;129987;1093;113982;-56
2021/07/05 05:28:10;;;;;;;15.65;9.88;;;;;;;22.27;78.08;98735.58;130049;1090;26402;-57
2021/07/05 05:30:39;;;;;;;12.58;10.85;;;;;;;22.38;77.75;98727.54;129984;1090;113999;-57
2021/07/05 05:33:09;;;;;;;12.78;10.78;;;;;;;22.48;77.33;98722.30;130019;1089;22652;-56
2021/07/05 05:35:37;;;;;;;14.68;10.68;;;;;;;22.58;76.81;98727.31;129955;1093;114340;-57
2021/07/05 05:38:06;;;;;;;13.38;10.05;;;;;;;22.70;76.53;98726.42;130093;1092;22559;-57
2021/07/05 05:40:35;;;;;;;11.30;10.23;;;;;;;22.78;76.34;98733.01;130070;1090;22561;-57
2021/07/05 05:43:08;;;;;;;11.33;9.80;;;;;;;22.86;75.72;98729.23;129979;1090;114171;-57
2021/07/05 05:45:37;;;;;;;12.45;9.63;;;;;;;22.95;75.98;98731.82;130079;1090;23429;-57
2021/07/05 05:48:06;;;;;;;12.90;10.10;;;;;;;23.04;75.89;98735.23;130035;1088;114121;-57
2021/07/05 05:50:36;;;;;;;11.70;10.53;;;;;;;23.08;75.22;98725.03;130111;1088;22596;-57
2021/07/05 05:53:05;;;;;;;15.18;10.50;;;;;;;23.10;74.89;98729.03;130108;1089;22566;-56
2021/07/05 05:55:34;;;;;;;12.28;11.00;;;;;;;23.11;74.90;98735.39;129969;1090;114319;-57
2021/07/05 05:58:03;;;;;;;11.65;10.45;;;;;;;23.10;74.60;98733.78;130062;1090;23473;-57
2021/07/05 06:00:32;;;;;;;11.65;10.45;;;;;;;23.10;75.20;98733.78;129967;1088;114155;-57
2021/07/05 06:03:01;;;;;;;14.35;11.60;;;;;;;23.14;75.26;98729.13;130118;1090;22551;-57
2021/07/05 06:05:30;;;;;;;13.23;10.65;;;;;;;23.17;75.35;98726.44;129988;1090;114355;-56
2021/07/05 06:07:58;;;;;;;13.33;10.98;;;;;;;23.25;74.94;98721.84;130099;1090;22647;-57
2021/07/05 06:10:27;;;;;;;12.83;11.50;;;;;;;23.29;75.05;98725.52;130066;1090;23408;-57
2021/07/05 06:12:56;;;;;;;12.05;10.88;;;;;;;23.35;74.33;98720.50;130026;1090;114479;-57
2021/07/05 06:15:25;;;;;;;11.93;10.25;;;;;;;23.36;74.38;98709.02;130077;1090;22681;-57
2021/07/05 06:18:02;;;;;;;13.20;11.80;;;;;;;23.36;73.83;98710.99;130002;1090;114550;-57
2021/07/05 06:20:31;;;;;;;14.48;10.33;;;;;;;23.37;73.88;98707.85;130057;1090;22734;-57
2021/07/05 06:23:13;;;;;;;12.33;11.03;;;;;;;23.42;74.03;98713.11;130124;1089;22530;-57
2021/07/05 06:25:42;;;;;;;;;;;;;;;23.53;74.52;98722.52;130009;1090;114110;-57
2021/07/05 06:28:11;;;;;;;14.30;12.03;;;;;;;23.59;73.35;98732.20;130128;1090;22098;-57
2021/07/05 06:30:42;;;;;;;14.48;12.05;;;;;;;23.60;73.28;98730.23;129946;1090;114143;-57
2021/07/05 06:33:12;;;;;;;13.73;11.53;;;;;;;23.61;73.60;98723.50;130023;1089;22581;-57
2021/07/05 06:35:41;;;;;;;14.73;11.65;;;;;;;23.66;73.89;98739.88;129953;1090;114267;-57
2021/07/05 06:38:11;;;;;;;14.85;12.50;;;;;;;23.71;73.64;98730.45;130095;1090;22729;-57
2021/07/05 06:40:40;;;;;;;18.38;13.70;;;;;;;23.78;73.94;98730.63;130052;1090;23322;-57
2021/07/05 06:43:10;;;;;;;16.35;12.00;;;;;;;23.89;73.53;98728.87;130013;1090;114238;-57
2021/07/05 06:45:40;;;;;;;13.53;12.13;;;;;;;23.99;72.85;98722.70;130144;1089;22603;-57
2021/07/05 06:48:09;;;;;;;13.03;11.65;;;;;;;24.03;72.60;98726.38;129924;1090;114231;-56
2021/07/05 06:50:44;;;;;;;12.75;11.23;;;;;;;24.07;72.50;98721.70;130133;1089;22561;-57
2021/07/05 06:53:13;;;;;;;14.30;12.45;;;;;;;24.10;72.49;98725.70;130095;1090;22593;-57
2021/07/05 06:55:42;;;;;;;13.63;12.05;;;;;;;24.12;72.59;98717.80;130008;1089;114147;-56
2021/07/05 06:58:11;;;;;;;17.38;12.43;;;;;;;24.13;72.61;98711.86;130078;1090;22522;-57
2021/07/05 07:00:40;;;;;;;13.30;11.15;;;;;;;24.14;72.10;98721.83;130036;1090;114351;-56
2021/07/05 07:03:09;;;;;;;13.68;12.38;;;;;;;24.14;71.50;98715.45;130114;1090;22550;-56
2021/07/05 07:05:38;;;;;;;11.85;10.63;;;;;;;24.11;72.03;98722.55;130034;1090;114244;-56
2021/07/05 07:08:07;;;;;;;11.38;10.28;;;;;;;24.14;71.94;98715.45;130057;1089;22637;-56
2021/07/05 07:10:36;;;;;;;15.65;12.20;;;;;;;24.17;72.19;98725.86;130159;1090;22528;-56
2021/07/05 07:13:05;;;;;;;15.85;12.23;;;;;;;24.21;71.71;98713.63;129980;1089;114195;-56
2021/07/05 07:15:49;;;;;;;11.73;10.53;;;;;;;24.21;71.28;98715.61;130125;1090;22562;-56
2021/07/05 07:21:10;;;;;;;14.63;10.90;;;;;;;24.21;71.94;98721.98;129986;1090;23096;-58
2021/07/05 07:23:39;;;;;;;12.45;11.05;;;;;;;24.23;71.61;98730.00;129984;1090;114532;-58
2021/07/05 07:26:08;;;;;;;13.55;10.08;;;;;;;24.21;71.51;98715.61;130148;1090;22528;-57
2021/07/05 07:28:39;;;;;;;12.35;9.53;;;;;;;24.19;71.26;98720.73;130072;1090;22643;-57
2021/07/05 07:31:08;;;;;;;13.43;11.78;;;;;;;24.19;71.38;98732.67;130019;1089;113956;-58
2021/07/05 07:33:37;;;;;;;14.58;11.10;;;;;;;24.21;71.65;98737.88;130014;1090;22719;-58
2021/07/05 07:36:12;;;;;;;11.90;9.83;;;;;;;24.23;71.66;98730.80;129979;1090;114292;-57
2021/07/05 07:38:47;;;;;;;10.93;9.05;;;;;;;24.25;71.50;98722.86;130050;1090;23064;-58
2021/07/05 07:41:21;;;;;;;10.38;8.30;;;;;;;24.29;70.95;98729.31;130104;1090;22591;-57
2021/07/05 07:43:50;;;;;;;13.50;9.65;;;;;;;24.31;70.62;98729.75;129961;1090;113865;-58
2021/07/05 07:46:19;;;;;;;10.85;9.10;;;;;;;24.37;71.17;98723.90;130041;1090;24103;-60
2021/07/05 07:48:48;;;;;;;10.80;9.30;;;;;;;24.42;71.25;98723.58;129970;1090;114320;-60
2021/07/05 07:51:18;;;;;;;11.03;8.70;;;;;;;24.47;71.10;98717.72;130095;1089;22535;-60
2021/07/05 07:53:47;;;;;;;13.75;8.35;;;;;;;24.54;71.03;98717.83;129899;1090;114121;-60
2021/07/05 07:59:03;;;;;;;11.73;8.53;;;;;;;24.60;70.54;98733.08;125569;1092;25903;-58
2021/07/05 08:01:33;;;;;;;8.95;7.98;;;;;;;24.63;70.08;98737.91;125240;1091;113678;-58
2021/07/05 08:04:02;;;;;;;10.95;7.90;;;;;;;24.68;70.57;98729.23;125915;1087;22819;-57
2021/07/05 08:06:31;;;;;;;13.65;8.63;;;;;;;24.74;69.63;98738.09;130368;1087;113598;-59
2021/07/05 08:09:01;;;;;;;8.70;7.90;;;;;;;24.77;69.51;98735.38;130505;1085;22531;-58
2021/07/05 08:11:31;;;;;;;10.63;7.70;;;;;;;24.80;69.62;98731.86;130424;1086;113942;-59
2021/07/05 08:14:03;;;;;;;11.30;9.05;;;;;;;24.84;69.65;98734.69;130525;1087;22551;-58
2021/07/05 08:16:33;;;;;;;9.38;8.23;;;;;;;24.87;69.40;98733.95;130496;1087;22499;-56
2021/07/05 08:19:02;;;;;;;10.20;8.20;;;;;;;24.90;69.96;98742.38;130399;1085;113960;-57
2021/07/05 08:21:36;;;;;;;10.35;6.73;;;;;;;24.97;69.02;98739.72;130460;1085;22566;-56
2021/07/05 08:24:05;;;;;;;8.98;7.23;;;;;;;25.04;67.78;98733.47;130391;1085;114221;-57
2021/07/05 08:26:35;;;;;;;7.83;6.78;;;;;;;25.06;66.77;98731.13;130457;1087;22544;-56
2021/07/05 08:29:04;;;;;;;9.98;6.93;;;;;;;25.07;66.95;98735.52;130550;1087;22537;-59
2021/07/05 08:31:33;;;;;;;10.08;6.43;;;;;;;25.10;67.05;98734.78;130378;1087;113618;-57
2021/07/05 08:34:02;;;;;;;7.17;6.47;;;;;;;25.15;66.76;98731.66;130523;1087;22520;-57
2021/07/05 08:36:31;;;;;;;8.98;6.00;;;;;;;25.23;67.10;98727.82;130349;1087;113619;-57
2021/07/05 08:39:00;;;;;;;9.48;6.40;;;;;;;25.33;67.76;98735.53;130529;1087;22583;-57
2021/07/05 08:41:29;;;;;;;7.38;6.08;;;;;;;25.48;67.30;98728.19;130378;1087;113090;-58
2021/07/05 08:43:58;;;;;;;10.95;6.90;;;;;;;25.58;65.94;98724.73;130544;1087;22960;-56
2021/07/05 08:46:27;;;;;;;9.95;6.08;;;;;;;25.66;66.10;98720.91;130471;1087;22553;-59
2021/07/05 08:48:58;;;;;;;10.60;6.73;;;;;;;25.74;65.31;98730.17;130385;1087;113376;-59
2021/07/05 08:51:27;;;;;;;14.03;5.95;;;;;;;25.77;63.97;98731.41;130455;1087;22606;-59
2021/07/05 08:53:56;;;;;;;9.28;5.93;;;;;;;25.78;63.23;98730.22;130383;1087;113984;-59
2021/07/05 08:56:25;;;;;;;8.98;5.80;;;;;;;25.73;63.45;98730.55;130476;1086;22642;-59
2021/07/05 08:58:54;;;;;;;8.05;6.18;;;;;;;25.67;63.28;98738.45;130522;1087;22594;-59
2021/07/05 09:01:23;;;;;;;8.30;5.55;;;;;;;25.59;63.68;98729.13;130375;1087;113567;-59
2021/07/05 09:03:52;;;;;;;6.90;6.00;;;;;;;25.53;63.47;98736.23;130507;1085;23386;-59
2021/07/05 09:06:22;;;;;;;10.65;6.00;;;;;;;25.48;64.33;98735.75;130385;1087;113604;-59
2021/07/05 09:08:57;;;;;;;7.18;5.85;;;;;;;25.46;64.51;98736.13;130506;1087;22583;-59
2021/07/05 09:11:38;;;;;;;7.75;5.90;;;;;;;25.53;64.22;98735.44;130484;1085;23148;-59
2021/07/05 09:14:17;;;;;;;10.40;6.13;;;;;;;25.63;64.61;98724.45;130415;1085;113461;-60
2021/07/05 09:17:09;;;;;;;6.20;5.00;;;;;;;25.74;63.13;98743.31;130433;1087;22557;-57
2021/07/05 09:19:40;;;;;;;6.43;5.75;;;;;;;25.73;61.69;98733.33;130379;1087;113580;-58
2021/07/05 09:22:29;;;;;;;7.00;6.05;;;;;;;25.70;61.80;98740.47;130468;1087;22594;-57
2021/07/05 09:24:58;;;;;;;7.53;5.10;;;;;;;25.75;61.83;98736.55;130433;1087;113627;-57
2021/07/05 09:27:35;;;;;;;8.45;5.58;;;;;;;25.80;61.82;98739.02;130455;1087;22546;-57
2021/07/05 09:30:09;;;;;;;8.40;5.90;;;;;;;25.88;61.92;98747.10;130427;1085;113785;-57
2021/07/05 09:32:39;;;;;;;6.13;5.53;;;;;;;25.97;62.19;98742.03;130465;1087;23596;-57
2021/07/05 09:35:15;;;;;;;6.28;4.80;;;;;;;26.03;61.49;98736.92;130472;1087;23113;-58
2021/07/05 09:37:53;;;;;;;9.43;5.30;;;;;;;26.05;61.25;98738.16;130343;1087;113836;-58
2021/07/05 09:40:22;;;;;;;7.08;5.03;;;;;;;26.01;59.72;98734.51;130447;1087;22523;-57
2021/07/05 09:42:51;;;;;;;7.28;5.28;;;;;;;25.95;59.92;98735.23;130306;1087;113604;-58
2021/07/05 09:45:23;;;;;;;6.53;5.23;;;;;;;25.90;59.95;98736.37;130443;1087;22672;-58
2021/07/05 09:48:18;;;;;;;5.73;5.08;;;;;;;25.94;60.53;98736.42;130327;1087;115538;-59
2021/07/05 09:50:57;;;;;;;8.70;4.95;;;;;;;26.05;60.82;98738.16;130524;1087;22630;-58
2021/07/05 09:53:33;;;;;;;11.90;5.70;;;;;;;26.16;60.01;98746.66;130456;1087;23477;-58
2021/07/05 09:56:24;;;;;;;6.45;4.33;;;;;;;26.22;60.21;98733.17;130430;1087;114102;-58
2021/07/05 09:58:55;;;;;;;5.28;4.50;;;;;;;26.23;60.12;98749.55;130479;1085;23463;-58
2021/07/05 10:01:44;;;;;;;4.53;4.05;;;;;;;26.23;60.09;98743.16;130406;1087;113563;-58
2021/07/05 10:04:45;;;;;;;11.00;4.78;;;;;;;26.19;59.38;98740.31;130415;1087;22558;-58
2021/07/05 10:07:11;;;;;;;8.18;5.40;;;;;;;26.11;59.85;98749.80;130396;1087;113848;-59
2021/07/05 10:09:41;;;;;;;12.20;6.05;;;;;;;26.05;59.45;98749.33;130474;1087;22570;-58
2021/07/05 10:12:27;;;;;;;7.10;4.85;;;;;;;26.02;60.66;98741.70;130387;1087;113949;-58
2021/07/05 10:14:56;;;;;;;6.30;4.68;;;;;;;26.05;61.19;98735.37;130463;1087;23624;-59
2021/07/05 10:17:42;;;;;;;7.58;4.58;;;;;;;26.17;60.53;98727.91;130528;1087;22552;-58
2021/07/05 10:20:35;;;;;;;5.88;5.30;;;;;;;26.31;59.37;98726.12;130454;1087;22507;-58
2021/07/05 10:23:12;;;;;;;4.88;4.38;;;;;;;26.43;58.97;98716.66;130491;1087;22551;-58
2021/07/05 10:25:42;;;;;;;8.85;4.73;;;;;;;26.53;57.24;98732.75;130364;1087;114025;-58
2021/07/05 10:28:11;;;;;;;5.58;4.18;;;;;;;26.56;56.51;98719.98;130515;1087;22555;-59
2021/07/05 10:30:41;;;;;;;7.65;4.00;;;;;;;26.52;56.40;98725.56;130327;1087;114401;-58
2021/07/05 10:33:10;;;;;;;8.65;4.45;;;;;;;26.49;56.90;98725.52;130484;1087;22576;-58
2021/07/05 10:35:44;;;;;;;7.83;4.48;;;;;;;26.49;57.43;98731.10;130497;1087;22560;-58
2021/07/05 10:38:22;;;;;;;6.60;4.83;;;;;;;26.49;57.89;98723.53;130392;1087;115084;-58
2021/07/05 10:40:53;;;;;;;5.65;4.23;;;;;;;26.54;58.67;98723.19;130463;1087;22558;-58
2021/07/05 10:43:23;;;;;;;5.18;4.28;;;;;;;26.63;57.77;98717.27;130438;1087;113711;-59
2021/07/05 10:45:56;;;;;;;5.90;4.65;;;;;;;26.68;56.75;98714.95;130473;1087;23586;-58
2021/07/05 10:48:31;;;;;;;7.28;4.40;;;;;;;26.70;57.58;98720.92;130383;1087;113727;-58
2021/07/05 10:51:00;;;;;;;6.25;4.40;;;;;;;26.72;57.13;98732.53;130477;1087;22559;-58
2021/07/05 10:53:32;;;;;;;9.05;4.03;;;;;;;26.73;57.54;98730.54;130553;1087;22541;-58
2021/07/05 10:56:01;;;;;;;4.48;4.08;;;;;;;26.74;57.21;98715.38;128722;1087;113642;-57
2021/07/05 10:58:34;;;;;;;5.98;4.00;;;;;;;26.75;57.01;98722.58;125794;1087;22910;-59
2021/07/05 11:01:05;;;;;;;5.60;4.38;;;;;;;26.76;56.50;98718.59;130400;1087;114493;-59
2021/07/05 11:03:43;;;;;;;11.93;4.23;;;;;;;26.78;56.83;98724.61;130517;1090;22554;-60
2021/07/05 11:06:22;;;;;;;6.30;4.95;;;;;;;26.79;57.57;98725.41;130507;1086;22562;-60
2021/07/05 11:08:52;;;;;;;5.33;4.45;;;;;;;26.75;57.24;98723.38;130420;1087;113691;-60
2021/07/05 11:11:31;;;;;;;6.70;4.45;;;;;;;26.70;57.84;98718.13;130501;1087;23771;-59
2021/07/05 11:14:16;;;;;;;6.85;4.45;;;;;;;26.69;58.33;98716.52;130392;1085;113622;-60
2021/07/05 11:17:04;;;;;;;6.35;5.08;;;;;;;26.76;58.50;98713.00;130467;1087;22622;-60
2021/07/05 11:19:33;;;;;;;6.88;4.00;;;;;;;26.83;58.72;98715.08;130421;1087;113637;-59
2021/07/05 11:22:07;;;;;;;5.40;4.65;;;;;;;26.91;58.63;98719.53;130471;1087;22590;-59
2021/07/05 11:24:44;;;;;;;9.83;4.68;;;;;;;26.97;57.92;98713.23;130380;1087;114056;-60
2021/07/05 11:27:32;;;;;;;5.03;3.85;;;;;;;27.03;56.83;98708.07;130521;1087;22556;-58
2021/07/05 11:30:11;;;;;;;5.60;4.93;;;;;;;27.06;55.99;98718.48;130519;1087;23599;-58
2021/07/05 11:32:42;;;;;;;7.20;3.85;;;;;;;27.03;56.51;98703.28;130343;1087;113564;-58
2021/07/05 11:35:45;;;;;;;42.23;7.75;;;;;;;26.98;56.36;98702.86;130517;1087;22849;-59
2021/07/05 11:38:33;;;;;;;8.05;3.88;;;;;;;26.90;55.84;98703.94;129918;1093;114103;-58